Terminal Aerodrome Forecast
Issued by NWS St Louis, MO

Home | Current Version | Previous Version | Text Only | Print | Product List | Glossary On
Versions: 1 2 3 4 5 6 7 8 9 10 11 12 13 14 15 16 17 18 19 20 21 22 23 24 25 26
000
FTUS43 KLSX 131717 AAA
TAFCOU
TAF AMD
KCOU 131717Z 1317/1412 07010KT P6SM -FZRAPL OVC030
     FM131800 08009KT 5SM -FZRA BR OVC015
     FM140000 08008KT 6SM -FZRA BR OVC008
     FM140700 08004KT 3SM -FZRA BR OVC003=

USA.gov is the U.S. government's official web portal to all federal, state and local government web resources and services.